createdAt,value
2022-08-21T00:01:03.503Z,101725.59
2022-08-21T00:03:10.822Z,101717.84
2022-08-21T00:05:12.401Z,101721.47
2022-08-21T00:07:14.295Z,101715.28
2022-08-21T00:09:15.805Z,101713.50
2022-08-21T00:11:18.130Z,101701.97
2022-08-21T00:13:20.922Z,101709.19
2022-08-21T00:15:27.337Z,101704.03
2022-08-21T00:17:28.877Z,101702.41
2022-08-21T00:19:31.056Z,101706.00
2022-08-21T00:21:33.568Z,101703.34
2022-08-21T00:23:36.335Z,101706.00
2022-08-21T00:25:38.893Z,101707.84
2022-08-21T00:27:42.971Z,101701.78
2022-08-21T00:29:44.695Z,101701.81
2022-08-21T00:31:46.609Z,101699.16
2022-08-21T00:33:48.146Z,101696.50
2022-08-21T00:35:49.685Z,101700.03
2022-08-21T00:37:51.238Z,101700.97
2022-08-21T00:39:54.264Z,101699.28
2022-08-21T00:41:56.040Z,101695.81
2022-08-21T00:43:57.745Z,101695.88
2022-08-21T00:45:59.678Z,101696.81
2022-08-21T00:48:01.708Z,101694.31
2022-08-21T00:50:05.995Z,101692.69
2022-08-21T00:52:11.908Z,101701.72
2022-08-21T00:54:18.841Z,101699.16
2022-08-21T00:56:22.408Z,101699.16
2022-08-21T00:58:25.372Z,101696.53
2022-08-21T01:00:31.429Z,101698.44
2022-08-21T01:02:32.913Z,101702.13
2022-08-21T01:04:35.422Z,101706.69
2022-08-21T01:06:36.913Z,101697.91
2022-08-21T01:08:38.827Z,101697.94
2022-08-21T01:10:48.929Z,101698.88
2022-08-21T01:12:57.271Z,101690.06
2022-08-21T01:14:59.710Z,101695.50
2022-08-21T01:17:04.084Z,101698.22
2022-08-21T01:19:07.373Z,101697.41
2022-08-21T01:21:16.960Z,101696.66
2022-08-21T01:23:18.466Z,101699.34
2022-08-21T01:25:22.923Z,101701.16
2022-08-21T01:27:24.543Z,101702.94
2022-08-21T01:29:51.199Z,101703.81
2022-08-21T01:31:52.731Z,101697.63
2022-08-21T01:33:55.423Z,101693.28
2022-08-21T01:35:57.452Z,101692.41
2022-08-21T01:37:59.176Z,101694.25
2022-08-21T01:40:00.982Z,101696.91
2022-08-21T01:42:03.045Z,101694.41
2022-08-21T01:44:05.460Z,101698.84
2022-08-21T01:46:07.307Z,101698.91
2022-08-21T01:48:08.832Z,101692.72
2022-08-21T01:50:13.071Z,101695.41
2022-08-21T01:52:14.626Z,101687.50
2022-08-21T01:54:16.314Z,101703.44
2022-08-21T01:56:18.545Z,101699.03
2022-08-21T01:58:20.240Z,101698.19
2022-08-21T02:00:26.274Z,101689.31
2022-08-21T02:02:27.827Z,101694.69
2022-08-21T02:04:29.396Z,101695.63
2022-08-21T02:06:30.905Z,101696.59
2022-08-21T02:08:32.824Z,101691.38
2022-08-21T02:10:34.415Z,101691.41
2022-08-21T02:12:36.178Z,101691.47
2022-08-21T02:14:38.402Z,101693.31
2022-08-21T02:16:41.874Z,101688.03
2022-08-21T02:18:44.210Z,101680.97
2022-08-21T02:20:48.750Z,101675.69
2022-08-21T02:22:57.588Z,101683.72
2022-08-21T02:24:59.203Z,101678.50
2022-08-21T02:27:00.720Z,101679.41
2022-08-21T02:29:04.076Z,101674.16
2022-08-21T02:31:07.004Z,101675.13
2022-08-21T02:33:10.917Z,101665.41
2022-08-21T02:35:13.128Z,101667.25
2022-08-21T02:37:14.629Z,101664.63
2022-08-21T02:39:16.140Z,101662.94
2022-08-21T02:41:28.758Z,101659.41
2022-08-21T02:43:30.437Z,101655.06
2022-08-21T02:45:32.390Z,101657.81
2022-08-21T02:47:34.007Z,101658.78
2022-08-21T02:49:35.554Z,101658.88
2022-08-21T02:51:37.079Z,101657.19
2022-08-21T02:53:38.636Z,101649.25
2022-08-21T02:55:40.301Z,101653.72
2022-08-21T02:57:41.861Z,101657.31
2022-08-21T02:59:45.459Z,101651.16
2022-08-21T03:01:47.026Z,101652.03
2022-08-21T03:03:52.367Z,101652.88
2022-08-21T03:05:53.945Z,101651.03
2022-08-21T03:07:55.606Z,101654.53
2022-08-21T03:09:57.139Z,101645.66
2022-08-21T03:11:58.706Z,101648.25
2022-08-21T03:14:00.343Z,101642.94
2022-08-21T03:16:02.014Z,101647.38
2022-08-21T03:18:08.126Z,101635.03
2022-08-21T03:20:10.711Z,101643.91
2022-08-21T03:22:12.237Z,101642.13
2022-08-21T03:24:13.724Z,101644.84
2022-08-21T03:26:15.315Z,101641.38
2022-08-21T03:28:20.799Z,101644.03
2022-08-21T03:30:23.408Z,101636.06
2022-08-21T03:32:24.903Z,101630.75
2022-08-21T03:34:26.430Z,101635.22
2022-08-21T03:36:27.965Z,101634.41
2022-08-21T03:38:32.295Z,101639.81
2022-08-21T03:40:33.827Z,101632.84
2022-08-21T03:42:35.851Z,101636.41
2022-08-21T03:44:38.473Z,101636.50
2022-08-21T03:46:41.119Z,101630.38
2022-08-21T03:48:42.648Z,101637.47
2022-08-21T03:50:45.077Z,101632.09
2022-08-21T03:52:46.566Z,101634.75
2022-08-21T03:54:48.233Z,101640.91
2022-08-21T03:56:50.362Z,101633.78
2022-08-21T03:58:52.347Z,101640.03
2022-08-21T04:00:56.472Z,101641.72
2022-08-21T04:02:58.127Z,101640.81
2022-08-21T04:04:59.724Z,101640.75
2022-08-21T04:07:01.317Z,101634.50
2022-08-21T04:09:03.127Z,101645.09
2022-08-21T04:11:06.537Z,101649.53
2022-08-21T04:13:09.216Z,101641.56
2022-08-21T04:15:10.896Z,101636.25
2022-08-21T04:17:12.385Z,101632.69
2022-08-21T04:19:15.007Z,101641.56
2022-08-21T04:21:16.678Z,101647.75
2022-08-21T04:23:23.545Z,101649.53
2022-08-21T04:25:28.710Z,101656.63
2022-08-21T04:27:30.186Z,101651.38
2022-08-21T04:29:31.684Z,101652.25
2022-08-21T04:31:34.472Z,101654.13
2022-08-21T04:33:36.191Z,101656.78
2022-08-21T04:35:37.754Z,101652.44
2022-08-21T04:37:42.038Z,101654.28
2022-08-21T04:39:44.113Z,101651.72
2022-08-21T04:41:45.640Z,101649.09
2022-08-21T04:43:47.555Z,101648.19
2022-08-21T04:45:50.220Z,101649.88
2022-08-21T04:47:53.702Z,101651.72
2022-08-21T04:49:55.188Z,101652.63
2022-08-21T04:51:56.790Z,101655.28
2022-08-21T04:54:13.026Z,101657.94
2022-08-21T04:56:22.932Z,101659.69
2022-08-21T04:58:27.964Z,101656.00
2022-08-21T05:00:29.633Z,101661.94
2022-08-21T05:02:33.933Z,101666.06
2022-08-21T05:04:38.955Z,101670.25
2022-08-21T05:06:45.087Z,101662.84
2022-08-21T05:08:49.849Z,101671.44
2022-08-21T05:10:51.564Z,101671.28
2022-08-21T05:12:53.838Z,101668.63
2022-08-21T05:14:55.396Z,101675.78
2022-08-21T05:16:56.928Z,101676.69
2022-08-21T05:18:59.627Z,101669.50
2022-08-21T05:21:01.143Z,101669.38
2022-08-21T05:23:08.984Z,101671.91
2022-08-21T05:25:11.341Z,101671.84
2022-08-21T05:27:12.843Z,101679.66
2022-08-21T05:29:20.117Z,101679.50
2022-08-21T05:31:21.706Z,101681.09
2022-08-21T05:33:23.436Z,101672.91
2022-08-21T05:35:25.288Z,101675.38
2022-08-21T05:37:26.804Z,101683.19
2022-08-21T05:39:28.317Z,101681.28
2022-08-21T05:41:50.283Z,101681.16
2022-08-21T05:43:52.000Z,101681.97
2022-08-21T05:45:53.639Z,101682.81
2022-08-21T05:47:55.311Z,101686.16
2022-08-21T05:49:56.796Z,101686.00
2022-08-21T05:51:58.417Z,101678.91
2022-08-21T05:53:59.940Z,101681.50
2022-08-21T05:56:04.517Z,101676.88
2022-08-21T05:58:06.177Z,101683.84
2022-08-21T06:00:13.454Z,101684.50
2022-08-21T06:02:15.581Z,101679.91
2022-08-21T06:04:17.328Z,101684.13
2022-08-21T06:06:18.855Z,101687.47
2022-08-21T06:08:21.423Z,101685.47
2022-08-21T06:10:23.028Z,101683.38
2022-08-21T06:12:25.809Z,101685.88
2022-08-21T06:14:27.269Z,101680.25
2022-08-21T06:16:30.226Z,101682.72
2022-08-21T06:18:31.871Z,101678.09
2022-08-21T06:20:33.971Z,101676.06
2022-08-21T06:22:35.481Z,101679.41
2022-08-21T06:24:37.151Z,101670.38
2022-08-21T06:26:39.094Z,101677.22
2022-08-21T06:28:41.743Z,101669.91
2022-08-21T06:30:43.568Z,101677.59
2022-08-21T06:32:45.229Z,101682.78
2022-08-21T06:34:46.718Z,101679.88
2022-08-21T06:36:48.249Z,101684.84
2022-08-21T06:38:51.931Z,101676.50
2022-08-21T06:40:53.558Z,101688.63
2022-08-21T06:42:55.294Z,101683.06
2022-08-21T06:44:59.221Z,101678.44
2022-08-21T06:47:00.823Z,101686.91
2022-08-21T06:49:02.321Z,101683.00
2022-08-21T06:51:03.956Z,101683.53
2022-08-21T06:53:11.621Z,101671.94
2022-08-21T06:55:13.281Z,101672.59
2022-08-21T06:57:23.360Z,101671.28
2022-08-21T06:59:24.885Z,101670.97
2022-08-21T07:01:27.763Z,101665.16
2022-08-21T07:03:40.653Z,101670.06
2022-08-21T07:05:42.126Z,101667.03
2022-08-21T07:07:44.100Z,101664.91
2022-08-21T07:09:48.769Z,101668.09
2022-08-21T07:11:54.294Z,101667.75
2022-08-21T07:13:57.473Z,101665.66
2022-08-21T07:16:03.668Z,101661.75
2022-08-21T07:18:06.626Z,101664.00
2022-08-21T07:20:08.544Z,101668.94
2022-08-21T07:22:10.162Z,101663.25
2022-08-21T07:24:11.744Z,101663.66
2022-08-21T07:26:15.169Z,101662.34
2022-08-21T07:28:16.650Z,101666.34
2022-08-21T07:30:18.226Z,101660.66
2022-08-21T07:32:21.466Z,101663.00
2022-08-21T07:34:23.059Z,101665.31
2022-08-21T07:36:24.975Z,101666.59
2022-08-21T07:38:26.821Z,101668.78
2022-08-21T07:40:28.329Z,101671.13
2022-08-21T07:42:29.936Z,101664.41
2022-08-21T07:44:31.500Z,101663.88
2022-08-21T07:46:33.186Z,101664.66
2022-08-21T07:48:34.685Z,101665.38
2022-08-21T07:50:36.601Z,101665.91
2022-08-21T07:52:38.081Z,101660.22
2022-08-21T07:54:39.632Z,101666.41
2022-08-21T07:56:41.256Z,101666.13
2022-08-21T07:58:42.738Z,101666.72
2022-08-21T08:00:44.367Z,101672.00
2022-08-21T08:02:50.387Z,101658.38
2022-08-21T08:04:52.215Z,101668.84
2022-08-21T08:06:54.030Z,101669.38
2022-08-21T08:08:55.584Z,101664.63
2022-08-21T08:10:58.938Z,101666.03
2022-08-21T08:13:00.736Z,101658.56
2022-08-21T08:15:04.139Z,101665.22
2022-08-21T08:17:05.732Z,101655.03
2022-08-21T08:19:07.231Z,101662.72
2022-08-21T08:21:10.082Z,101656.16
2022-08-21T08:23:13.539Z,101662.13
2022-08-21T08:25:15.696Z,101661.97
2022-08-21T08:27:18.196Z,101656.41
2022-08-21T08:29:19.660Z,101652.59
2022-08-21T08:31:21.276Z,101648.19
2022-08-21T08:33:23.358Z,101655.78
2022-08-21T08:35:26.044Z,101649.97
2022-08-21T08:37:31.523Z,101655.78
2022-08-21T08:39:36.578Z,101659.16
2022-08-21T08:41:38.669Z,101655.34
2022-08-21T08:43:43.577Z,101662.06
2022-08-21T08:45:50.415Z,101654.66
2022-08-21T08:48:01.172Z,101656.78
2022-08-21T08:50:08.416Z,101656.78
2022-08-21T08:52:22.089Z,101662.47
2022-08-21T08:54:36.407Z,101651.69
2022-08-21T08:56:38.071Z,101652.94
2022-08-21T08:58:44.530Z,101660.72
2022-08-21T09:00:50.029Z,101650.47
2022-08-21T09:02:58.042Z,101647.69
2022-08-21T09:05:00.844Z,101654.09
2022-08-21T09:07:46.250Z,101647.91
2022-08-21T09:10:11.743Z,101651.69
2022-08-21T09:12:19.686Z,101644.09
2022-08-21T09:14:55.754Z,101642.03
2022-08-21T09:17:11.804Z,101636.97
2022-08-21T09:19:24.787Z,101636.78
2022-08-21T09:22:00.632Z,101645.03
2022-08-21T09:24:16.273Z,101635.94
2022-08-21T09:26:24.571Z,101642.25
2022-08-21T09:28:27.452Z,101638.00
2022-08-21T09:30:31.998Z,101637.59
2022-08-21T09:32:37.781Z,101642.50
2022-08-21T09:34:39.624Z,101634.72
2022-08-21T09:36:46.450Z,101634.03
2022-08-21T09:38:54.254Z,101636.03
2022-08-21T09:41:13.974Z,101632.81
2022-08-21T09:43:15.407Z,101625.53
2022-08-21T09:45:19.484Z,101627.53
2022-08-21T09:47:26.208Z,101624.66
2022-08-21T09:49:37.943Z,101625.72
2022-08-21T09:51:39.443Z,101629.19
2022-08-21T09:53:52.614Z,101623.66
2022-08-21T09:56:24.198Z,101626.31
2022-08-21T09:58:35.025Z,101623.06
2022-08-21T10:00:37.133Z,101624.50
2022-08-21T10:02:39.255Z,101615.72
2022-08-21T10:04:42.705Z,101615.44
2022-08-21T10:06:44.196Z,101618.53
2022-08-21T10:08:45.696Z,101621.53
2022-08-21T10:10:52.599Z,101616.94
2022-08-21T10:13:12.735Z,101621.03
2022-08-21T10:15:28.912Z,101620.84
2022-08-21T10:17:45.711Z,101617.13
2022-08-21T10:20:10.428Z,101619.13
2022-08-21T10:22:41.616Z,101615.97
2022-08-21T10:25:04.340Z,101615.38
2022-08-21T10:27:24.012Z,101606.72
2022-08-21T10:29:52.667Z,101606.94
2022-08-21T10:31:56.953Z,101609.97
2022-08-21T10:34:21.608Z,101603.47
2022-08-21T10:36:36.597Z,101610.94
2022-08-21T10:39:17.708Z,101603.50
2022-08-21T10:41:59.583Z,101603.06
2022-08-21T10:44:33.649Z,101605.53
2022-08-21T10:46:50.294Z,101599.03
2022-08-21T10:48:59.672Z,101603.63
2022-08-21T10:51:12.648Z,101587.09
2022-08-21T10:53:26.434Z,101604.78
2022-08-21T10:55:32.781Z,101600.56
2022-08-21T10:57:43.931Z,101598.84
2022-08-21T10:59:54.849Z,101597.34
2022-08-21T11:02:31.841Z,101602.88
2022-08-21T11:04:53.360Z,101591.81
2022-08-21T11:07:03.752Z,101593.88
2022-08-21T11:09:15.991Z,101598.91
2022-08-21T11:11:29.408Z,101601.69
2022-08-21T11:13:48.794Z,101597.13
2022-08-21T11:16:30.535Z,101588.06
2022-08-21T11:18:47.226Z,101596.28
2022-08-21T11:21:17.318Z,101597.31
2022-08-21T11:23:26.162Z,101596.84
2022-08-21T11:25:36.902Z,101589.84
2022-08-21T11:27:57.074Z,101596.16
2022-08-21T11:30:00.877Z,101598.19
2022-08-21T11:32:11.421Z,101606.31
2022-08-21T11:34:31.375Z,101597.06
2022-08-21T11:39:27.845Z,101592.13
2022-08-21T11:41:35.482Z,101584.94
2022-08-21T11:43:47.599Z,101581.34
2022-08-21T11:46:00.853Z,101585.41
2022-08-21T11:48:13.500Z,101587.00
2022-08-21T11:50:34.855Z,101582.66
2022-08-21T11:53:03.511Z,101583.41
2022-08-21T11:55:16.438Z,101577.50
2022-08-21T11:57:36.669Z,101586.84
2022-08-21T11:59:53.526Z,101588.00
2022-08-21T12:01:55.455Z,101586.66
2022-08-21T12:04:03.329Z,101587.25
2022-08-21T12:06:24.271Z,101581.63
2022-08-21T12:08:53.534Z,101590.22
2022-08-21T12:11:21.222Z,101586.75
2022-08-21T12:13:40.067Z,101586.75
2022-08-21T12:15:42.308Z,101585.34
2022-08-21T12:18:27.112Z,101579.66
2022-08-21T12:20:40.001Z,101577.53
2022-08-21T12:23:04.375Z,101585.13
2022-08-21T12:25:11.561Z,101578.22
2022-08-21T12:27:32.289Z,101576.53
2022-08-21T12:29:38.156Z,101592.09
2022-08-21T12:32:07.726Z,101583.53
2022-08-21T12:34:11.484Z,101580.88
2022-08-21T12:36:16.810Z,101581.22
2022-08-21T12:38:27.745Z,101582.88
2022-08-21T12:40:42.618Z,101582.53
2022-08-21T12:42:58.658Z,101589.50
2022-08-21T12:45:05.960Z,101580.00
2022-08-21T12:47:37.574Z,101575.38
2022-08-21T12:49:59.140Z,101572.47
2022-08-21T12:52:28.794Z,101569.25
2022-08-21T12:54:39.118Z,101577.84
2022-08-21T12:56:40.866Z,101576.25
2022-08-21T12:58:47.721Z,101571.25
2022-08-21T13:01:02.627Z,101578.31
2022-08-21T13:03:04.494Z,101567.78
2022-08-21T13:05:08.622Z,101571.84
2022-08-21T13:07:17.113Z,101572.91
2022-08-21T13:09:26.892Z,101570.97
2022-08-21T13:11:33.724Z,101573.31
2022-08-21T13:13:35.746Z,101565.97
2022-08-21T13:15:47.735Z,101563.38
2022-08-21T13:17:51.936Z,101563.75
2022-08-21T13:20:06.278Z,101553.47
2022-08-21T13:22:33.541Z,101559.53
2022-08-21T13:24:42.718Z,101560.63
2022-08-21T13:26:45.457Z,101550.94
2022-08-21T13:28:48.508Z,101556.63
2022-08-21T13:30:56.625Z,101549.47
2022-08-21T13:33:09.757Z,101549.19
2022-08-21T13:35:21.904Z,101550.06
2022-08-21T13:37:25.978Z,101548.84
2022-08-21T13:39:27.918Z,101550.34
2022-08-21T13:41:36.058Z,101548.41
2022-08-21T13:43:38.506Z,101552.19
2022-08-21T13:45:40.041Z,101546.50
2022-08-21T13:47:42.610Z,101547.13
2022-08-21T13:49:47.433Z,101550.56
2022-08-21T13:51:49.269Z,101546.72
2022-08-21T13:53:53.399Z,101537.03
2022-08-21T13:55:59.975Z,101554.94
2022-08-21T13:58:04.578Z,101549.09
2022-08-21T14:00:12.808Z,101548.38
2022-08-21T14:02:19.161Z,101542.75
2022-08-21T14:04:36.909Z,101546.31
2022-08-21T14:06:39.206Z,101541.91
2022-08-21T14:08:44.209Z,101540.97
2022-08-21T14:10:57.168Z,101539.81
2022-08-21T14:13:03.493Z,101549.88
2022-08-21T14:15:06.402Z,101548.03
2022-08-21T14:17:24.366Z,101543.84
2022-08-21T14:19:39.908Z,101542.75
2022-08-21T14:21:46.943Z,101539.59
2022-08-21T14:23:48.447Z,101537.50
2022-08-21T14:25:50.084Z,101544.81
2022-08-21T14:27:55.608Z,101537.59
2022-08-21T14:30:04.504Z,101537.91
2022-08-21T14:32:21.891Z,101541.47
2022-08-21T14:34:34.095Z,101541.97
2022-08-21T14:36:37.380Z,101545.66
2022-08-21T14:38:41.267Z,101546.22
2022-08-21T14:40:43.850Z,101550.56
2022-08-21T14:42:46.717Z,101542.72
2022-08-21T14:44:48.489Z,101552.66
2022-08-21T14:46:56.097Z,101552.53
2022-08-21T14:48:59.018Z,101549.22
2022-08-21T14:51:00.908Z,101554.00
2022-08-21T14:53:04.906Z,101558.81
2022-08-21T14:55:17.398Z,101551.31
2022-08-21T14:57:19.567Z,101544.66
2022-08-21T14:59:21.858Z,101548.34
2022-08-21T15:01:23.888Z,101543.56
2022-08-21T15:03:26.934Z,101545.78
2022-08-21T15:05:32.956Z,101545.09
2022-08-21T15:07:34.710Z,101548.78
2022-08-21T15:09:36.267Z,101543.25
2022-08-21T15:11:41.980Z,101543.25
2022-08-21T15:13:44.786Z,101535.41
2022-08-21T15:15:48.999Z,101549.59
2022-08-21T15:17:50.560Z,101543.31
2022-08-21T15:19:52.074Z,101547.06
2022-08-21T15:21:54.154Z,101538.69
2022-08-21T15:23:55.781Z,101537.69
2022-08-21T15:25:58.628Z,101535.00
2022-08-21T15:28:02.460Z,101532.91
2022-08-21T15:30:05.224Z,101541.16
2022-08-21T15:32:18.101Z,101539.97
2022-08-21T15:34:20.460Z,101546.19
2022-08-21T15:36:24.809Z,101542.41
2022-08-21T15:38:26.506Z,101537.81
2022-08-21T15:40:28.518Z,101538.09
2022-08-21T15:42:30.387Z,101537.09
2022-08-21T15:44:31.941Z,101535.25
2022-08-21T15:46:33.507Z,101531.59
2022-08-21T15:48:34.972Z,101529.50
2022-08-21T15:50:37.015Z,101532.44
2022-08-21T15:52:40.082Z,101530.09
2022-08-21T15:54:42.285Z,101536.59
2022-08-21T15:56:48.280Z,101532.53
2022-08-21T15:58:53.202Z,101534.56
2022-08-21T16:00:54.816Z,101533.94
2022-08-21T16:02:59.244Z,101538.38
2022-08-21T16:05:01.053Z,101532.66
2022-08-21T16:07:06.648Z,101536.63
2022-08-21T16:09:10.800Z,101529.00
2022-08-21T16:11:16.650Z,101535.50
2022-08-21T16:13:33.402Z,101534.41
2022-08-21T16:15:35.012Z,101537.47
2022-08-21T16:17:37.907Z,101532.41
2022-08-21T16:19:39.792Z,101535.34
2022-08-21T16:21:41.749Z,101532.97
2022-08-21T16:23:44.040Z,101538.16
2022-08-21T16:25:45.810Z,101531.78
2022-08-21T16:27:59.505Z,101536.84
2022-08-21T16:30:02.324Z,101534.25
2022-08-21T16:32:05.186Z,101545.09
2022-08-21T16:34:06.776Z,101535.00
2022-08-21T16:36:09.662Z,101541.53
2022-08-21T16:38:11.177Z,101540.28
2022-08-21T16:40:13.387Z,101539.03
2022-08-21T16:42:19.709Z,101543.19
2022-08-21T16:44:24.383Z,101544.63
2022-08-21T16:46:26.452Z,101539.00
2022-08-21T16:48:32.345Z,101549.78
2022-08-21T16:50:33.803Z,101541.41
2022-08-21T16:52:35.416Z,101552.19
2022-08-21T16:54:37.395Z,101541.91
2022-08-21T16:56:41.377Z,101544.09
2022-08-21T16:58:48.107Z,101547.19
2022-08-21T17:00:49.793Z,101548.41
2022-08-21T17:02:54.757Z,101547.53
2022-08-21T17:04:56.324Z,101547.88
2022-08-21T17:06:57.887Z,101552.63
2022-08-21T17:09:01.080Z,101553.72
2022-08-21T17:11:04.717Z,101549.41
2022-08-21T17:13:09.660Z,101547.47
2022-08-21T17:15:21.612Z,101550.50
2022-08-21T17:17:23.253Z,101550.50
2022-08-21T17:19:24.892Z,101552.78
2022-08-21T17:21:26.637Z,101552.03
2022-08-21T17:23:28.213Z,101551.84
2022-08-21T17:25:30.597Z,101557.03
2022-08-21T17:27:32.097Z,101558.97
2022-08-21T17:29:39.883Z,101572.97
2022-08-21T17:31:42.866Z,101573.28
2022-08-21T17:33:52.091Z,101569.50
2022-08-21T17:35:54.007Z,101577.06
2022-08-21T17:37:55.566Z,101579.44
2022-08-21T17:39:58.635Z,101580.94
2022-08-21T17:42:05.357Z,101576.06
2022-08-21T17:44:10.691Z,101574.88
2022-08-21T17:46:19.088Z,101576.41
2022-08-21T17:48:25.337Z,101581.78
2022-08-21T17:50:27.146Z,101588.59
2022-08-21T17:52:28.801Z,101589.13
2022-08-21T17:54:30.330Z,101587.72
2022-08-21T17:56:35.272Z,101594.13
2022-08-21T17:58:37.219Z,101600.06
2022-08-21T18:00:39.165Z,101605.84
2022-08-21T18:02:43.461Z,101603.00
2022-08-21T18:04:44.968Z,101601.88
2022-08-21T18:06:46.552Z,101604.75
2022-08-21T18:08:48.136Z,101606.91
2022-08-21T18:10:50.469Z,101613.47
2022-08-21T18:12:52.511Z,101616.81
2022-08-21T18:14:54.087Z,101615.00
2022-08-21T18:16:56.314Z,101613.38
2022-08-21T18:18:58.239Z,101612.69
2022-08-21T18:20:59.798Z,101617.69
2022-08-21T18:23:01.677Z,101615.75
2022-08-21T18:25:05.423Z,101616.72
2022-08-21T18:27:09.709Z,101614.81
2022-08-21T18:29:16.883Z,101619.72
2022-08-21T18:31:19.373Z,101622.09
2022-08-21T18:33:21.717Z,101620.84
2022-08-21T18:35:23.465Z,101623.53
2022-08-21T18:37:25.088Z,101631.50
2022-08-21T18:39:36.404Z,101633.34
2022-08-21T18:41:38.487Z,101629.59
2022-08-21T18:43:39.986Z,101643.50
2022-08-21T18:45:41.959Z,101637.28
2022-08-21T18:47:50.121Z,101642.66
2022-08-21T18:49:52.018Z,101643.50
2022-08-21T18:51:53.592Z,101641.78
2022-08-21T18:53:56.198Z,101650.81
2022-08-21T18:56:04.869Z,101651.97
2022-08-21T18:58:07.552Z,101657.91
2022-08-21T19:00:13.126Z,101654.75
2022-08-21T19:02:16.132Z,101654.06
2022-08-21T19:04:41.159Z,101662.63
2022-08-21T19:06:41.049Z,101656.75
2022-08-21T19:08:47.888Z,101667.31
2022-08-21T19:10:53.494Z,101668.84
2022-08-21T19:12:57.851Z,101667.31
2022-08-21T19:15:00.155Z,101668.94
2022-08-21T19:17:02.766Z,101670.09
2022-08-21T19:19:06.801Z,101667.22
2022-08-21T19:21:08.827Z,101671.94
2022-08-21T19:23:13.110Z,101680.19
2022-08-21T19:25:14.612Z,101674.28
2022-08-21T19:27:16.188Z,101673.69
2022-08-21T19:29:19.770Z,101675.44
2022-08-21T19:31:27.951Z,101676.47
2022-08-21T19:33:37.514Z,101677.63
2022-08-21T19:35:41.131Z,101670.53
2022-08-21T19:37:42.714Z,101668.13
2022-08-21T19:39:48.782Z,101669.44
2022-08-21T19:41:57.307Z,101671.38
2022-08-21T19:44:04.188Z,101666.94
2022-08-21T19:46:05.778Z,101676.91
2022-08-21T19:48:07.365Z,101682.66
2022-08-21T19:52:32.692Z,101687.06
2022-08-21T19:54:37.561Z,101691.59
2022-08-21T19:56:39.167Z,101691.03
2022-08-21T19:58:42.875Z,101690.25
2022-08-21T20:00:44.405Z,101691.97
2022-08-21T20:02:48.226Z,101695.78
2022-08-21T20:07:11.434Z,101691.66
2022-08-21T20:09:16.969Z,101690.97
2022-08-21T20:11:32.974Z,101695.47
2022-08-21T20:13:34.917Z,101700.25
2022-08-21T20:15:36.505Z,101699.56
2022-08-21T20:17:39.129Z,101693.41
2022-08-21T20:19:43.687Z,101699.16
2022-08-21T20:21:45.592Z,101700.38
2022-08-21T20:26:10.227Z,101699.91
2022-08-21T20:28:13.096Z,101703.81
2022-08-21T20:30:16.524Z,101709.44
2022-08-21T20:32:24.278Z,101699.47
2022-08-21T20:34:26.316Z,101698.00
2022-08-21T20:36:28.165Z,101698.97
2022-08-21T20:38:29.701Z,101697.16
2022-08-21T20:40:32.948Z,101702.69
2022-08-21T20:42:34.596Z,101688.31
2022-08-21T20:44:37.656Z,101693.84
2022-08-21T20:46:48.473Z,101695.00
2022-08-21T20:48:52.855Z,101688.06
2022-08-21T20:51:08.376Z,101689.88
2022-08-21T20:53:46.307Z,101686.50
2022-08-21T20:55:51.069Z,101688.56
2022-08-21T20:58:03.014Z,101691.47
2022-08-21T21:00:14.447Z,101696.22
2022-08-21T21:02:16.307Z,101686.59
2022-08-21T21:04:37.235Z,101686.78
2022-08-21T21:06:41.149Z,101685.22
2022-08-21T21:08:54.141Z,101690.81
2022-08-21T21:11:13.729Z,101690.91
2022-08-21T21:13:20.411Z,101695.50
2022-08-21T21:15:30.167Z,101697.47
2022-08-21T21:17:37.991Z,101693.16
2022-08-21T21:19:53.686Z,101699.63
2022-08-21T21:22:02.745Z,101707.03
2022-08-21T21:24:18.984Z,101703.88
2022-08-21T21:26:46.184Z,101701.69
2022-08-21T21:28:50.183Z,101706.44
2022-08-21T21:30:57.598Z,101706.59
2022-08-21T21:32:59.960Z,101705.03
2022-08-21T21:35:04.793Z,101701.72
2022-08-21T21:37:07.858Z,101706.28
2022-08-21T21:42:30.298Z,101705.91
2022-08-21T21:45:17.081Z,101715.22
2022-08-21T21:47:31.459Z,101711.91
2022-08-21T21:49:42.882Z,101708.44
2022-08-21T21:52:03.256Z,101719.22
2022-08-21T21:54:22.585Z,101714.03
2022-08-21T21:56:34.101Z,101718.75
2022-08-21T21:59:08.263Z,101722.59
2022-08-21T22:01:23.933Z,101722.91
2022-08-21T22:03:38.263Z,101727.59
2022-08-21T22:06:01.123Z,101730.34
2022-08-21T22:08:12.741Z,101731.22
2022-08-21T22:10:30.563Z,101714.28
2022-08-21T22:12:56.621Z,101726.88
2022-08-21T22:15:11.159Z,101723.66
2022-08-21T22:17:29.790Z,101727.41
2022-08-21T22:19:38.726Z,101731.97
2022-08-21T22:21:49.179Z,101724.75
2022-08-21T22:23:54.161Z,101727.41
2022-08-21T22:26:03.443Z,101731.03
2022-08-21T22:28:11.384Z,101725.69
2022-08-21T22:30:35.990Z,101728.34
2022-08-21T22:32:46.917Z,101724.03
2022-08-21T22:35:09.500Z,101722.22
2022-08-21T22:37:12.812Z,101725.84
2022-08-21T22:39:27.827Z,101724.81
2022-08-21T22:41:37.587Z,101725.59
2022-08-21T22:43:55.651Z,101732.69
2022-08-21T22:46:05.858Z,101726.41
2022-08-21T22:48:22.406Z,101732.69
2022-08-21T22:50:24.258Z,101730.97
2022-08-21T22:52:51.954Z,101728.44
2022-08-21T22:55:01.312Z,101733.06
2022-08-21T22:57:12.278Z,101728.81
2022-08-21T22:59:25.366Z,101733.22
2022-08-21T23:01:26.818Z,101727.78
2022-08-21T23:03:33.811Z,101725.03
2022-08-21T23:05:36.550Z,101728.50
2022-08-21T23:07:44.381Z,101727.56
2022-08-21T23:09:53.358Z,101725.75
2022-08-21T23:11:58.168Z,101728.50
2022-08-21T23:14:00.054Z,101719.75
2022-08-21T23:16:12.239Z,101729.59
2022-08-21T23:18:33.884Z,101727.94
2022-08-21T23:20:57.682Z,101720.06
2022-08-21T23:23:17.843Z,101722.81
2022-08-21T23:25:22.379Z,101726.34
2022-08-21T23:27:42.191Z,101717.47
2022-08-21T23:30:05.495Z,101723.75
2022-08-21T23:32:20.597Z,101730.13
2022-08-21T23:34:37.302Z,101728.59
2022-08-21T23:37:48.461Z,101729.66
2022-08-21T23:40:13.035Z,101725.25
2022-08-21T23:42:58.395Z,101727.84
2022-08-21T23:45:17.371Z,101722.47
2022-08-21T23:47:50.944Z,101727.09
2022-08-21T23:50:13.861Z,101728.91
2022-08-21T23:52:36.667Z,101726.31
2022-08-21T23:55:03.791Z,101730.72
2022-08-21T23:57:40.303Z,101726.13
